MIR weather

Monastir Habib Bourguiba International Airport
Monastir, Monastir Governorate, Tunisia

Public forecast

Using degrees Celsius for public forecast. Weather courtesy of forecast.io.

METAR (pilot weather report)

Retrieved 2019/04/20 19:30 UTC (20 minutes ago):

DTMB 201930Z 10018KT 8000 SCT023 SCT030 17/14 Q1015

TAF (pilot weather forecast)

Retrieved 2019/04/20 18:00 UTC (2 hours ago):

TAF DTMB 201700Z 2018/2118 10020G30KT 8000 BKN026 BECMG 2112/2114 09015KT